Aviation

Port-au-Prince

FTHA31 MTPP 271200
TAF MTPP 271227Z 2712/2812 10004KT 9000 FEW018 BECMG 2719/2723 30014KT PROB30 TEMPO 2803/2806 4800 SHRA SCT014CB SCT040 BECMG 2808/2812 VRB02KT 7000 NSW NSC
=


Cap-Haïtien

FTHA31 MTCH 271200
TAF MTCH 271230Z 2712/2812 23003KT 9000 FEW026CB BECMG 2718/2722 01012KT FM280300 VRB02KT 7000 NSC
=